createdAt,value
2023-05-23T00:01:24.916Z,101459.00
2023-05-23T00:06:28.065Z,101393.88
2023-05-23T00:11:31.117Z,101446.50
2023-05-23T00:16:42.902Z,101451.72
2023-05-23T00:21:49.540Z,101459.44
2023-05-23T00:26:54.852Z,101410.78
2023-05-23T00:31:59.031Z,101420.56
2023-05-23T00:37:02.170Z,101461.78
2023-05-23T00:42:06.408Z,101443.50
2023-05-23T00:47:13.748Z,101420.81
2023-05-23T00:52:16.817Z,101431.16
2023-05-23T00:57:20.050Z,101463.31
2023-05-23T01:02:25.002Z,101462.38
2023-05-23T01:07:28.964Z,101460.84
2023-05-23T01:12:41.536Z,101462.50
2023-05-23T01:17:53.013Z,101389.44
2023-05-23T01:23:15.496Z,101468.66
2023-05-23T01:28:23.039Z,101458.34
2023-05-23T01:33:26.737Z,101455.56
2023-05-23T01:38:29.584Z,101460.41
2023-05-23T01:43:34.150Z,101464.78
2023-05-23T01:48:38.414Z,101467.97
2023-05-23T01:53:41.717Z,101419.44
2023-05-23T01:58:45.888Z,101441.22
2023-05-23T02:03:48.587Z,101491.66
2023-05-23T02:08:51.693Z,101459.66
2023-05-23T02:13:55.711Z,101483.78
2023-05-23T02:18:58.552Z,101484.63
2023-05-23T02:24:01.397Z,101476.84
2023-05-23T02:29:06.925Z,101496.91
2023-05-23T02:34:09.663Z,101325.94
2023-05-23T02:39:12.369Z,101422.16
2023-05-23T02:44:19.508Z,101450.97
2023-05-23T02:49:22.364Z,101458.16
2023-05-23T02:54:26.954Z,101236.81
2023-05-23T02:59:31.381Z,101470.31
2023-05-23T03:04:34.498Z,101442.66
2023-05-23T03:09:37.516Z,101526.53
2023-05-23T03:14:41.829Z,101517.06
2023-05-23T03:19:44.801Z,101457.31
2023-05-23T03:24:50.155Z,101452.69
2023-05-23T03:29:54.388Z,101501.53
2023-05-23T03:34:57.710Z,101461.69
2023-05-23T03:40:00.663Z,101483.09
2023-05-23T03:45:06.775Z,101534.34
2023-05-23T03:50:11.240Z,101523.75
2023-05-23T03:55:15.027Z,101487.34
2023-05-23T04:00:20.204Z,101553.53
2023-05-23T04:05:25.839Z,101502.16
2023-05-23T04:10:29.806Z,101480.53
2023-05-23T04:15:35.533Z,101464.13
2023-05-23T04:20:44.306Z,101564.97
2023-05-23T04:25:48.357Z,101570.81
2023-05-23T04:30:59.508Z,101415.88
2023-05-23T04:36:05.590Z,101482.97
2023-05-23T04:41:10.161Z,101570.31
2023-05-23T04:46:36.517Z,101580.00
2023-05-23T04:51:58.138Z,101524.38
2023-05-23T04:57:06.597Z,101525.47
2023-05-23T05:02:11.239Z,101596.06
2023-05-23T05:07:16.518Z,101600.19
2023-05-23T05:12:19.673Z,101579.16
2023-05-23T05:17:24.893Z,101619.75
2023-05-23T05:22:40.257Z,101563.34
2023-05-23T05:27:47.499Z,101618.03
2023-05-23T05:32:58.574Z,101627.91
2023-05-23T05:38:04.918Z,101544.84
2023-05-23T05:43:07.960Z,101549.06
2023-05-23T05:48:12.773Z,101642.78
2023-05-23T05:53:17.548Z,101619.06
2023-05-23T05:58:20.833Z,101650.59
2023-05-23T06:03:34.892Z,101663.22
2023-05-23T06:08:37.821Z,101650.69
2023-05-23T06:13:41.131Z,101662.34
2023-05-23T06:18:45.661Z,101661.38
2023-05-23T06:23:49.652Z,101663.69
2023-05-23T06:28:52.506Z,101645.25
2023-05-23T06:33:57.212Z,101670.16
2023-05-23T06:38:59.871Z,101655.97
2023-05-23T06:44:02.697Z,101674.56
2023-05-23T06:49:14.910Z,101633.31
2023-05-23T06:54:20.835Z,101627.97
2023-05-23T06:59:23.708Z,101652.84
2023-05-23T07:04:30.413Z,101700.78
2023-05-23T07:09:41.417Z,101644.78
2023-05-23T07:14:49.300Z,101709.09
2023-05-23T07:19:59.223Z,101733.34
2023-05-23T07:25:03.402Z,101731.94
2023-05-23T07:30:12.843Z,101747.81
2023-05-23T07:35:17.908Z,101753.06
2023-05-23T07:40:23.168Z,101724.22
2023-05-23T07:45:25.911Z,101770.63
2023-05-23T07:50:32.181Z,101747.28
2023-05-23T07:55:36.698Z,101770.22
2023-05-23T08:00:41.658Z,101777.28
2023-05-23T08:05:56.709Z,101697.28
2023-05-23T08:10:59.570Z,101772.34
2023-05-23T08:16:09.846Z,101763.59
2023-05-23T08:21:16.995Z,101795.53
2023-05-23T08:26:19.803Z,101784.66
2023-05-23T08:31:23.893Z,101794.97
2023-05-23T08:36:28.560Z,101782.09
2023-05-23T08:41:35.016Z,101810.25
2023-05-23T08:46:46.973Z,101819.75
2023-05-23T08:52:03.685Z,101778.47
2023-05-23T08:57:08.648Z,101835.84
2023-05-23T09:02:18.157Z,101813.13
2023-05-23T09:07:24.483Z,101841.41
2023-05-23T09:12:29.481Z,101853.47
2023-05-23T09:17:34.969Z,101854.84
2023-05-23T09:22:39.503Z,101860.72
2023-05-23T09:27:48.552Z,101857.28
2023-05-23T09:33:05.547Z,101879.28
2023-05-23T09:38:10.670Z,101838.19
2023-05-23T09:43:13.532Z,101865.94
2023-05-23T09:48:16.278Z,101849.09
2023-05-23T09:53:22.596Z,101863.50
2023-05-23T09:58:28.042Z,101863.03
2023-05-23T10:03:35.592Z,101852.00
2023-05-23T14:08:33.936Z,101922.59
2023-05-23T14:13:36.539Z,101918.16
2023-05-23T14:18:39.113Z,101923.00
2023-05-23T14:23:45.774Z,101913.34
2023-05-23T14:28:49.133Z,101920.16
2023-05-23T14:33:51.730Z,101921.13
2023-05-23T14:45:33.031Z,101919.91
2023-05-23T14:50:35.952Z,101920.50
2023-05-23T14:55:38.882Z,101925.16
2023-05-23T15:00:46.893Z,101918.69
2023-05-23T15:05:50.167Z,101924.00
2023-05-23T15:10:53.121Z,101920.88
2023-05-23T15:15:57.123Z,101924.31
2023-05-23T15:21:00.030Z,101914.06
2023-05-23T15:26:02.642Z,101828.97
2023-05-23T15:31:06.619Z,101924.13
2023-05-23T15:36:09.607Z,101921.25
2023-05-23T15:41:12.337Z,101919.53
2023-05-23T15:46:16.395Z,101914.44
2023-05-23T15:51:19.167Z,101921.75
2023-05-23T15:56:21.937Z,101921.84
2023-05-23T16:01:26.002Z,101919.78
2023-05-23T16:06:33.064Z,101920.16
2023-05-23T16:11:39.952Z,101916.47
2023-05-23T16:16:44.987Z,101918.06
2023-05-23T16:21:47.772Z,101921.44
2023-05-23T16:26:51.012Z,101932.22
2023-05-23T16:31:55.009Z,101928.56
2023-05-23T16:36:58.356Z,101924.53
2023-05-23T16:42:01.942Z,101922.34
2023-05-23T16:47:06.263Z,101923.50
2023-05-23T16:52:09.276Z,101919.66
2023-05-23T16:57:12.264Z,101920.25
2023-05-23T17:02:17.065Z,101928.34
2023-05-23T17:07:19.836Z,101935.19
2023-05-23T17:12:22.503Z,101934.88
2023-05-23T17:17:26.534Z,101935.31
2023-05-23T17:22:29.188Z,101931.91
2023-05-23T17:27:32.146Z,101922.09
2023-05-23T17:32:36.083Z,101944.00
2023-05-23T17:37:39.002Z,101939.25
2023-05-23T17:42:43.199Z,101916.03
2023-05-23T17:47:47.225Z,101940.56
2023-05-23T17:52:50.425Z,101938.09
2023-05-23T17:57:53.878Z,101940.72
2023-05-23T18:02:57.925Z,101949.81
2023-05-23T18:08:00.613Z,101940.25
2023-05-23T18:13:03.249Z,101952.22
2023-05-23T18:18:16.019Z,101946.16
2023-05-23T18:23:20.715Z,101956.94
2023-05-23T18:28:23.334Z,101946.03
2023-05-23T18:33:28.044Z,101959.38
2023-05-23T18:38:30.814Z,101955.94
2023-05-23T18:43:33.451Z,101972.50
2023-05-23T18:48:37.445Z,101968.97
2023-05-23T18:53:42.425Z,101974.69
2023-05-23T18:58:46.959Z,101971.81
2023-05-23T19:03:51.325Z,101985.31
2023-05-23T19:08:54.001Z,101990.13
2023-05-23T19:13:56.622Z,102001.84
2023-05-23T19:19:00.638Z,102001.25
2023-05-23T19:24:07.215Z,102004.41
2023-05-23T19:29:10.603Z,102021.16
2023-05-23T19:34:14.555Z,102028.69
2023-05-23T19:39:17.188Z,102028.63
2023-05-23T19:44:20.181Z,102038.06
2023-05-23T19:49:24.121Z,102039.31
2023-05-23T19:54:28.033Z,102046.50
2023-05-23T19:59:30.709Z,102059.06
2023-05-23T20:04:34.886Z,102060.38
2023-05-23T20:09:37.876Z,102067.97
2023-05-23T20:14:40.903Z,102078.81
2023-05-23T20:19:44.836Z,102081.94
2023-05-23T20:24:47.608Z,102090.38
2023-05-23T20:29:51.138Z,102042.41
2023-05-23T20:34:55.101Z,102102.44
2023-05-23T20:39:57.944Z,102107.88
2023-05-23T20:45:00.551Z,102089.78
2023-05-23T20:50:05.066Z,102109.16
2023-05-23T20:55:08.796Z,102116.25
2023-05-23T21:00:13.075Z,102120.63
2023-05-23T21:05:17.296Z,102118.59
2023-05-23T21:10:20.204Z,102120.47
2023-05-23T21:15:22.880Z,102122.69
2023-05-23T21:20:28.824Z,102122.50
2023-05-23T21:25:31.819Z,102123.63
2023-05-23T21:30:34.497Z,102118.81
2023-05-23T21:35:38.556Z,102119.06
2023-05-23T21:40:41.246Z,102116.13
2023-05-23T21:45:44.128Z,102120.50
2023-05-23T21:50:48.566Z,102108.59
2023-05-23T21:55:51.351Z,102117.31
2023-05-23T22:00:53.931Z,102118.00
2023-05-23T22:05:57.868Z,102111.47
2023-05-23T22:11:00.969Z,102109.44
2023-05-23T22:16:05.130Z,102117.25
2023-05-23T22:21:09.108Z,102117.34
2023-05-23T22:26:12.335Z,102119.13
2023-05-23T22:31:15.416Z,102103.59
2023-05-23T22:36:19.402Z,102109.91
2023-05-23T22:41:22.154Z,102103.03
2023-05-23T22:46:24.816Z,102115.38
2023-05-23T22:51:29.236Z,102116.06
2023-05-23T22:56:31.837Z,102110.03
2023-05-23T23:01:34.713Z,102113.09
2023-05-23T23:06:38.786Z,102115.44
2023-05-23T23:11:41.375Z,102103.47
2023-05-23T23:16:46.162Z,102111.56
2023-05-23T23:21:51.141Z,102112.22
2023-05-23T23:26:53.719Z,102121.97
2023-05-23T23:31:58.760Z,102116.75
2023-05-23T23:37:02.676Z,102114.09
2023-05-23T23:42:06.062Z,102126.16
2023-05-23T23:47:08.912Z,102126.44
2023-05-23T23:52:12.876Z,102126.25
2023-05-23T23:57:15.564Z,102106.88
